Time;durP1;ratioP1;P1;durP2;ratioP2;P2;SDS_P1;SDS_P2;PMS_P1;PMS_P2;Temp;Humidity;BMP_temperature;BMP_pressure;BME280_temperature;BME280_humidity;BME280_pressure;Samples;Min_cycle;Max_cycle;Signal;HPM_P1;HPM_P2
2023/07/08 00:00:18;;;;;;;7.30;4.05;;;18.50;99.90;;;;;;5073762;28;20090;-59
2023/07/08 00:02:44;;;;;;;6.15;3.35;;;18.50;99.90;;;;;;5073615;28;20024;-58
2023/07/08 00:05:11;;;;;;;7.68;3.45;;;18.40;99.90;;;;;;5073593;28;20036;-62
2023/07/08 00:07:38;;;;;;;6.53;3.78;;;18.40;99.90;;;;;;5073626;28;20432;-62
2023/07/08 00:10:16;;;;;;;10.05;3.75;;;18.40;99.90;;;;;;5073357;28;20044;-62
2023/07/08 00:12:43;;;;;;;6.82;3.85;;;18.40;99.90;;;;;;5073233;28;20051;-62
2023/07/08 00:15:10;;;;;;;6.35;3.20;;;18.30;99.90;;;;;;5055227;28;20798;-62
2023/07/08 00:17:36;;;;;;;5.30;3.78;;;18.30;99.90;;;;;;5054039;28;20625;-62
2023/07/08 00:20:17;;;;;;;6.75;3.72;;;18.20;99.90;;;;;;5057826;28;20036;-62
2023/07/08 00:22:46;;;;;;;10.48;4.25;;;18.20;99.90;;;;;;5068826;28;20037;-62
2023/07/08 00:25:13;;;;;;;7.30;3.45;;;18.20;99.90;;;;;;5064109;28;20037;-62
2023/07/08 00:27:39;;;;;;;6.68;3.90;;;18.20;99.90;;;;;;5073065;28;20041;-62
2023/07/08 00:30:25;;;;;;;7.35;4.05;;;18.10;99.90;;;;;;5073139;28;20047;-63
2023/07/08 00:32:54;;;;;;;8.18;3.95;;;18.10;99.90;;;;;;5058870;28;20036;-62
2023/07/08 00:35:32;;;;;;;5.47;3.58;;;18.10;99.90;;;;;;5073115;28;20078;-63
2023/07/08 00:38:01;;;;;;;6.40;3.95;;;18.00;99.90;;;;;;5072930;28;20029;-62
2023/07/08 00:40:29;;;;;;;7.43;4.07;;;18.00;99.90;;;;;;5072960;28;20047;-61
2023/07/08 00:42:54;;;;;;;9.85;3.80;;;17.90;99.90;;;;;;5072450;28;20060;-63
2023/07/08 00:45:40;;;;;;;5.45;3.85;;;17.90;99.90;;;;;;5073028;28;20394;-62
2023/07/08 00:48:29;;;;;;;6.35;3.90;;;17.90;99.90;;;;;;5068602;28;20486;-62
2023/07/08 00:50:55;;;;;;;6.05;4.13;;;17.90;99.90;;;;;;5064948;28;20044;-63
2023/07/08 00:53:27;;;;;;;6.75;4.07;;;17.90;99.90;;;;;;5072454;28;20043;-62
2023/07/08 00:55:58;;;;;;;7.43;3.60;;;17.80;99.90;;;;;;5071553;28;20489;-62
2023/07/08 00:58:26;;;;;;;5.72;3.78;;;17.80;99.90;;;;;;5072447;28;20166;-62
2023/07/08 01:00:56;;;;;;;7.32;3.63;;;17.90;99.90;;;;;;5071496;28;20141;-62
2023/07/08 01:03:24;;;;;;;8.82;4.40;;;17.80;99.90;;;;;;5072177;28;20479;-62
2023/07/08 01:05:51;;;;;;;6.20;3.80;;;17.80;99.90;;;;;;5072477;28;20036;-63
2023/07/08 01:08:17;;;;;;;5.93;3.97;;;17.80;99.90;;;;;;5072256;28;20121;-62
2023/07/08 01:10:55;;;;;;;5.80;3.90;;;17.70;99.90;;;;;;5071989;28;20067;-62
2023/07/08 01:13:21;;;;;;;5.47;3.80;;;17.70;99.90;;;;;;5072106;28;20044;-63
2023/07/08 01:15:48;;;;;;;7.82;4.13;;;17.70;99.90;;;;;;5072280;28;20036;-62
2023/07/08 01:18:16;;;;;;;6.85;3.78;;;17.70;99.90;;;;;;5072401;28;20048;-63
2023/07/08 01:20:43;;;;;;;6.32;4.20;;;17.70;99.90;;;;;;5071958;28;20064;-62
2023/07/08 01:23:12;;;;;;;6.57;3.90;;;17.70;99.90;;;;;;5061762;28;20492;-62
2023/07/08 01:25:38;;;;;;;7.13;3.83;;;17.70;99.90;;;;;;5068448;28;20044;-63
2023/07/08 01:28:05;;;;;;;6.75;3.83;;;17.60;99.90;;;;;;5072018;28;20792;-62
2023/07/08 01:30:30;;;;;;;10.82;4.30;;;17.60;99.90;;;;;;5071744;28;20043;-63
2023/07/08 01:33:01;;;;;;;9.13;4.00;;;17.60;99.90;;;;;;5072271;28;20036;-63
2023/07/08 01:35:27;;;;;;;6.55;4.00;;;17.60;99.90;;;;;;5072012;28;20037;-63
2023/07/08 01:37:57;;;;;;;6.88;3.97;;;17.60;99.90;;;;;;5071591;28;20039;-62
2023/07/08 01:40:37;;;;;;;8.90;4.75;;;17.50;99.90;;;;;;5071838;28;20041;-63
2023/07/08 01:43:04;;;;;;;8.60;4.53;;;17.50;99.90;;;;;;5071845;28;20048;-63
2023/07/08 01:45:37;;;;;;;7.18;4.10;;;17.50;99.90;;;;;;5072019;28;20169;-63
2023/07/08 01:48:06;;;;;;;8.10;4.20;;;17.50;99.90;;;;;;5071626;28;20059;-63
2023/07/08 01:50:36;;;;;;;6.78;3.67;;;17.50;99.90;;;;;;5071745;28;20041;-63
2023/07/08 01:53:11;;;;;;;10.77;4.72;;;17.50;99.90;;;;;;5071552;28;20040;-63
2023/07/08 01:55:37;;;;;;;6.75;4.00;;;17.50;99.90;;;;;;5060271;28;20041;-63
2023/07/08 01:58:03;;;;;;;8.23;4.35;;;17.50;99.90;;;;;;5068768;28;20036;-63
2023/07/08 02:00:28;;;;;;;8.25;4.10;;;17.50;99.90;;;;;;5071716;28;20106;-62
2023/07/08 02:02:54;;;;;;;7.65;4.55;;;17.50;99.90;;;;;;5071458;28;20547;-64
2023/07/08 02:05:19;;;;;;;7.43;4.53;;;17.50;99.90;;;;;;5071641;28;20462;-62
2023/07/08 02:07:45;;;;;;;8.52;4.47;;;17.40;99.90;;;;;;5071769;28;20044;-63
2023/07/08 02:10:11;;;;;;;7.60;3.78;;;17.50;99.90;;;;;;5071395;28;20491;-63
2023/07/08 02:12:37;;;;;;;8.77;4.10;;;17.50;99.90;;;;;;5071708;28;20048;-63
2023/07/08 02:15:05;;;;;;;7.53;4.13;;;17.50;99.90;;;;;;5071540;28;20037;-62
2023/07/08 02:17:30;;;;;;;7.95;4.50;;;17.40;99.90;;;;;;5069971;28;20052;-62
2023/07/08 02:19:56;;;;;;;12.38;4.55;;;17.40;99.90;;;;;;5071305;28;20086;-63
2023/07/08 02:22:22;;;;;;;9.40;4.80;;;17.40;99.90;;;;;;5067666;28;20029;-62
2023/07/08 02:24:48;;;;;;;6.95;4.85;;;17.40;99.90;;;;;;5061378;28;20033;-62
2023/07/08 02:27:14;;;;;;;8.63;4.47;;;17.30;99.90;;;;;;5071311;28;20394;-63
2023/07/08 02:29:40;;;;;;;15.23;4.70;;;17.40;99.90;;;;;;5071441;28;20040;-63
2023/07/08 02:32:06;;;;;;;8.02;4.00;;;17.30;99.90;;;;;;5071334;28;20040;-63
2023/07/08 02:34:32;;;;;;;10.70;4.60;;;17.30;99.90;;;;;;5071291;28;20048;-63
2023/07/08 02:36:58;;;;;;;14.07;4.28;;;17.40;99.90;;;;;;5071434;28;20037;-63
2023/07/08 02:39:24;;;;;;;9.00;4.07;;;17.30;99.90;;;;;;5071273;28;20795;-63
2023/07/08 02:41:50;;;;;;;9.43;4.50;;;17.20;99.90;;;;;;5071515;28;20136;-63
2023/07/08 02:44:15;;;;;;;13.02;4.93;;;17.30;99.90;;;;;;5075074;28;20478;-63
2023/07/08 02:46:41;;;;;;;9.38;4.63;;;17.20;99.90;;;;;;5073762;28;20064;-63
2023/07/08 02:49:07;;;;;;;9.40;4.70;;;17.30;99.90;;;;;;5053598;28;20136;-63
2023/07/08 02:51:32;;;;;;;6.03;4.53;;;17.30;99.90;;;;;;5074999;28;20423;-63
2023/07/08 02:53:58;;;;;;;12.35;4.47;;;17.30;99.90;;;;;;5075096;28;20127;-62
2023/07/08 02:56:26;;;;;;;6.28;4.70;;;17.30;99.90;;;;;;5074861;28;20032;-63
2023/07/08 02:58:52;;;;;;;8.25;4.57;;;17.20;99.90;;;;;;5064539;28;20037;-63
2023/07/08 03:01:18;;;;;;;8.27;4.85;;;17.20;99.90;;;;;;5070928;28;20040;-63
2023/07/08 03:03:45;;;;;;;7.07;4.85;;;17.30;99.90;;;;;;5074653;28;20085;-63
2023/07/08 03:06:10;;;;;;;9.40;4.45;;;17.20;99.90;;;;;;5073491;28;20043;-65
2023/07/08 03:08:36;;;;;;;7.22;4.88;;;17.20;99.90;;;;;;5074430;28;20036;-65
2023/07/08 03:11:05;;;;;;;5.93;4.70;;;17.20;99.90;;;;;;5074487;28;20079;-65
2023/07/08 03:13:31;;;;;;;9.57;5.03;;;17.20;99.90;;;;;;5074432;28;20040;-65
2023/07/08 03:16:01;;;;;;;7.20;4.88;;;17.10;99.90;;;;;;5074455;28;20036;-65
2023/07/08 03:18:28;;;;;;;10.50;5.20;;;17.10;99.90;;;;;;5074125;28;20079;-65
2023/07/08 03:20:55;;;;;;;8.63;4.82;;;17.10;99.90;;;;;;5074237;28;20039;-65
2023/07/08 03:23:23;;;;;;;11.32;5.13;;;17.10;99.90;;;;;;5062407;28;20040;-65
2023/07/08 03:25:49;;;;;;;9.65;4.95;;;17.10;99.90;;;;;;5072331;28;20387;-66
2023/07/08 03:28:14;;;;;;;11.10;4.95;;;17.10;99.90;;;;;;5074149;28;20045;-65
2023/07/08 03:30:44;;;;;;;10.48;4.28;;;17.10;99.90;;;;;;5074011;28;20106;-64
2023/07/08 03:33:11;;;;;;;11.13;5.00;;;17.10;99.90;;;;;;5072566;28;20052;-65
2023/07/08 03:35:38;;;;;;;9.15;4.75;;;17.10;99.90;;;;;;5073840;28;20040;-65
2023/07/08 03:38:04;;;;;;;6.10;4.75;;;17.10;99.90;;;;;;5073953;28;20045;-65
2023/07/08 03:40:30;;;;;;;7.18;5.22;;;17.10;99.90;;;;;;5074258;28;20036;-65
2023/07/08 03:42:56;;;;;;;7.80;4.80;;;17.10;99.90;;;;;;5073743;28;20045;-66
2023/07/08 03:45:21;;;;;;;10.38;4.45;;;17.10;99.90;;;;;;5073953;28;20040;-65
2023/07/08 03:47:47;;;;;;;7.53;4.82;;;17.10;99.90;;;;;;5073753;28;20043;-66
2023/07/08 03:50:19;;;;;;;12.52;4.43;;;17.00;99.90;;;;;;5074022;28;20470;-65
2023/07/08 03:52:46;;;;;;;7.97;4.70;;;17.10;99.90;;;;;;5073518;28;20101;-65
2023/07/08 03:55:12;;;;;;;11.95;5.47;;;17.10;99.90;;;;;;5073751;28;20124;-65
2023/07/08 03:57:38;;;;;;;12.20;4.97;;;17.10;99.90;;;;;;5073568;28;20115;-64
2023/07/08 04:00:04;;;;;;;8.63;4.97;;;17.10;99.90;;;;;;5072370;28;20029;-63
2023/07/08 04:02:30;;;;;;;8.02;4.93;;;17.10;99.90;;;;;;5073560;28;20382;-63
2023/07/08 04:04:55;;;;;;;9.27;4.72;;;17.10;99.90;;;;;;5073642;28;20040;-63
2023/07/08 04:07:21;;;;;;;9.82;5.47;;;17.10;99.90;;;;;;5073704;28;20037;-63
2023/07/08 04:09:49;;;;;;;7.85;4.53;;;17.10;99.90;;;;;;5073492;28;20438;-64
2023/07/08 04:12:15;;;;;;;7.65;4.50;;;17.10;99.90;;;;;;5073827;28;20475;-65
2023/07/08 04:14:42;;;;;;;7.95;4.90;;;17.10;99.90;;;;;;5071941;28;20044;-64
2023/07/08 04:17:10;;;;;;;8.70;5.30;;;17.10;99.90;;;;;;5073277;28;20489;-64
2023/07/08 04:19:36;;;;;;;10.48;5.15;;;17.10;99.90;;;;;;5073501;28;20044;-64
2023/07/08 04:22:02;;;;;;;8.27;4.95;;;17.10;99.90;;;;;;5072298;28;20364;-64
2023/07/08 04:24:28;;;;;;;8.18;5.03;;;17.10;99.90;;;;;;5060305;28;20394;-64
2023/07/08 04:26:54;;;;;;;9.10;5.45;;;17.20;99.90;;;;;;5073284;28;20058;-64
2023/07/08 04:29:21;;;;;;;9.57;5.50;;;17.10;99.90;;;;;;5073224;28;20668;-64
2023/07/08 04:31:47;;;;;;;8.90;4.90;;;17.10;99.90;;;;;;5073741;28;20032;-64
2023/07/08 04:34:14;;;;;;;6.68;4.88;;;17.20;99.90;;;;;;5073222;28;20923;-65
2023/07/08 04:36:40;;;;;;;6.28;4.82;;;17.20;99.90;;;;;;5073211;28;20039;-64
2023/07/08 04:39:06;;;;;;;9.60;5.55;;;17.30;99.90;;;;;;5073023;28;20041;-64
2023/07/08 04:41:32;;;;;;;8.95;5.57;;;17.30;99.90;;;;;;5072703;28;20125;-64
2023/07/08 04:44:02;;;;;;;7.65;5.50;;;17.40;99.90;;;;;;5072977;28;20076;-64
2023/07/08 04:46:36;;;;;;;7.32;4.97;;;17.40;99.90;;;;;;5073086;28;20071;-64
2023/07/08 04:49:03;;;;;;;7.35;4.88;;;17.40;99.90;;;;;;5072928;28;20102;-64
2023/07/08 04:51:29;;;;;;;8.40;5.15;;;17.50;99.90;;;;;;5072732;28;20041;-64
2023/07/08 04:53:54;;;;;;;9.82;5.05;;;17.60;99.90;;;;;;5071178;28;20418;-64
2023/07/08 04:56:21;;;;;;;5.32;4.25;;;17.60;99.90;;;;;;5072592;28;20079;-64
2023/07/08 04:58:47;;;;;;;5.50;4.53;;;17.70;99.90;;;;;;5072736;28;20044;-64
2023/07/08 05:01:12;;;;;;;7.18;4.60;;;17.80;99.90;;;;;;5072587;28;20036;-64
2023/07/08 05:03:38;;;;;;;6.28;4.68;;;17.90;99.90;;;;;;5072772;28;20042;-64
2023/07/08 05:06:04;;;;;;;12.48;5.10;;;17.90;99.90;;;;;;5072199;28;20754;-64
2023/07/08 05:08:29;;;;;;;6.38;4.38;;;18.00;99.90;;;;;;5072368;28;20482;-64
2023/07/08 05:10:56;;;;;;;5.57;4.50;;;18.10;99.90;;;;;;5071123;28;20144;-64
2023/07/08 05:13:22;;;;;;;9.35;4.75;;;18.10;99.90;;;;;;5072330;28;20448;-64
2023/07/08 05:15:48;;;;;;;7.93;4.60;;;18.20;99.90;;;;;;5072221;28;20075;-64
2023/07/08 05:18:14;;;;;;;7.68;4.35;;;18.30;99.90;;;;;;5072342;28;20043;-64
2023/07/08 05:20:40;;;;;;;7.85;4.70;;;18.30;99.90;;;;;;5072603;28;20451;-64
2023/07/08 05:23:05;;;;;;;6.05;4.13;;;18.40;99.90;;;;;;5062271;28;20041;-64
2023/07/08 05:25:32;;;;;;;15.25;5.57;;;18.50;99.90;;;;;;5067840;28;20045;-64
2023/07/08 05:27:58;;;;;;;8.05;5.38;;;18.60;99.90;;;;;;5072192;28;20076;-64
2023/07/08 05:30:24;;;;;;;12.73;5.22;;;18.70;99.90;;;;;;5072030;28;20517;-64
2023/07/08 05:32:50;;;;;;;6.80;4.30;;;18.70;99.90;;;;;;5071997;28;20032;-64
2023/07/08 05:35:15;;;;;;;6.22;5.00;;;18.70;99.90;;;;;;5072202;28;20115;-64
2023/07/08 05:37:44;;;;;;;11.40;5.20;;;18.80;99.90;;;;;;5071977;28;20082;-64
2023/07/08 05:40:10;;;;;;;8.80;4.63;;;18.90;99.90;;;;;;5072189;28;20433;-65
2023/07/08 05:42:36;;;;;;;8.50;5.20;;;19.00;99.90;;;;;;5071730;28;20044;-64
2023/07/08 05:45:02;;;;;;;13.77;4.85;;;19.10;99.90;;;;;;5072366;28;20045;-65
2023/07/08 05:47:27;;;;;;;15.23;4.80;;;19.20;99.90;;;;;;5071844;28;20153;-64
2023/07/08 05:49:53;;;;;;;10.30;5.38;;;19.30;99.90;;;;;;5072094;28;20115;-64
2023/07/08 05:52:19;;;;;;;10.20;4.45;;;19.40;99.90;;;;;;5071877;28;20482;-64
2023/07/08 05:54:44;;;;;;;16.65;5.10;;;19.50;99.90;;;;;;5071844;28;20604;-65
2023/07/08 05:57:11;;;;;;;12.90;4.60;;;19.60;99.90;;;;;;5072135;28;20032;-64
2023/07/08 05:59:42;;;;;;;14.02;4.40;;;19.60;99.90;;;;;;5071745;28;20103;-65
2023/07/08 06:02:10;;;;;;;17.83;4.57;;;19.70;99.90;;;;;;5072024;28;20541;-64
2023/07/08 06:04:36;;;;;;;22.05;4.68;;;19.90;99.90;;;;;;5071587;28;20085;-65
2023/07/08 06:07:01;;;;;;;11.32;4.05;;;20.00;99.90;;;;;;5071911;28;20433;-65
2023/07/08 06:09:27;;;;;;;8.57;4.38;;;20.20;99.90;;;;;;5071611;28;20048;-65
2023/07/08 06:11:52;;;;;;;10.02;4.35;;;20.30;99.90;;;;;;5071698;28;20040;-65
2023/07/08 06:14:18;;;;;;;6.63;3.78;;;20.50;99.90;;;;;;5071760;28;20151;-65
2023/07/08 06:16:44;;;;;;;9.52;4.43;;;20.70;99.90;;;;;;5073227;28;20035;-66
2023/07/08 06:19:10;;;;;;;15.13;4.70;;;20.70;99.90;;;;;;5074944;28;20094;-66
2023/07/08 06:21:35;;;;;;;9.07;3.65;;;20.80;99.90;;;;;;5061047;28;20041;-66
2023/07/08 06:24:01;;;;;;;5.43;3.47;;;21.00;99.90;;;;;;5063384;28;20041;-58
2023/07/08 06:26:27;;;;;;;10.00;4.35;;;21.20;99.90;;;;;;5075543;28;20036;-58
2023/07/08 06:28:52;;;;;;;5.07;3.50;;;21.30;99.90;;;;;;5063511;28;20028;-58
2023/07/08 06:31:18;;;;;;;9.45;3.80;;;21.50;99.90;;;;;;5075425;28;20074;-58
2023/07/08 06:33:43;;;;;;;4.70;3.35;;;21.60;99.90;;;;;;5075236;28;20059;-58
2023/07/08 06:36:09;;;;;;;3.55;3.05;;;21.70;99.90;;;;;;5075244;28;20115;-57
2023/07/08 06:38:35;;;;;;;5.93;3.95;;;21.80;99.90;;;;;;5075325;28;20052;-58
2023/07/08 06:41:00;;;;;;;4.93;3.45;;;22.00;99.90;;;;;;5075183;28;20036;-58
2023/07/08 06:43:26;;;;;;;4.53;3.08;;;22.20;99.90;;;;;;5074860;28;20102;-58
2023/07/08 06:45:52;;;;;;;8.82;3.38;;;22.30;99.90;;;;;;5075204;28;20045;-58
2023/07/08 06:48:17;;;;;;;10.70;3.95;;;22.50;99.90;;;;;;5075122;28;20446;-57
2023/07/08 06:50:47;;;;;;;4.80;3.22;;;22.70;99.90;;;;;;5075207;28;20853;-59
2023/07/08 06:53:13;;;;;;;6.00;3.30;;;22.90;99.90;;;;;;5075252;28;20049;-58
2023/07/08 06:55:39;;;;;;;7.97;3.35;;;22.90;99.90;;;;;;5075003;28;20068;-58
2023/07/08 06:58:04;;;;;;;8.93;3.30;;;23.30;99.90;;;;;;5073834;28;20084;-58
2023/07/08 07:00:30;;;;;;;6.53;3.15;;;23.40;99.90;;;;;;5074844;28;20074;-58
2023/07/08 07:02:56;;;;;;;4.97;2.85;;;23.50;99.90;;;;;;5074892;28;20068;-58
2023/07/08 07:05:21;;;;;;;5.60;2.85;;;23.70;99.90;;;;;;5074671;28;20510;-58
2023/07/08 07:07:47;;;;;;;5.97;3.35;;;23.90;99.90;;;;;;5074810;28;20047;-58
2023/07/08 07:10:13;;;;;;;7.95;3.70;;;24.00;99.90;;;;;;5074440;28;20048;-59
2023/07/08 07:12:38;;;;;;;5.45;3.50;;;24.20;99.90;;;;;;5074812;28;20036;-58
2023/07/08 07:15:05;;;;;;;7.78;3.10;;;24.50;99.90;;;;;;5074540;28;20068;-58
2023/07/08 07:17:31;;;;;;;8.40;3.00;;;24.70;99.90;;;;;;5074378;28;20055;-58
2023/07/08 07:19:56;;;;;;;8.90;3.10;;;24.80;99.90;;;;;;5074415;28;20033;-59
2023/07/08 07:22:22;;;;;;;4.90;2.95;;;25.10;99.90;;;;;;5071007;28;20044;-58
2023/07/08 07:24:48;;;;;;;4.22;3.03;;;25.10;99.90;;;;;;5064224;28;20189;-58
2023/07/08 07:27:14;;;;;;;4.57;2.65;;;25.20;99.90;;;;;;5074057;28;20071;-58
2023/07/08 07:29:45;;;;;;;4.50;3.15;;;25.70;99.90;;;;;;5073785;28;20029;-58
2023/07/08 07:32:12;;;;;;;8.68;3.30;;;25.90;99.90;;;;;;5070660;28;20479;-58
2023/07/08 07:34:38;;;;;;;4.85;3.03;;;26.10;99.90;;;;;;5057134;28;20041;-59
2023/07/08 07:37:05;;;;;;;6.20;2.90;;;26.20;99.90;;;;;;5063563;28;20378;-58
2023/07/08 07:39:31;;;;;;;3.22;2.22;;;26.20;99.90;;;;;;5059949;28;20490;-58
2023/07/08 07:41:56;;;;;;;6.45;2.42;;;26.80;99.90;;;;;;5066466;28;20047;-59
2023/07/08 07:44:22;;;;;;;6.97;3.03;;;26.90;99.90;;;;;;5065938;28;20041;-59
2023/07/08 07:46:48;;;;;;;4.43;2.80;;;27.10;99.90;;;;;;5069124;28;20044;-58
2023/07/08 07:49:14;;;;;;;10.20;3.63;;;26.70;99.90;;;;;;5059981;28;20059;-58
2023/07/08 07:51:39;;;;;;;4.97;3.10;;;27.20;99.90;;;;;;5059619;28;20033;-58
2023/07/08 07:54:05;;;;;;;4.95;2.65;;;27.50;99.90;;;;;;5073955;28;20048;-59
2023/07/08 07:56:31;;;;;;;8.02;2.85;;;27.70;99.90;;;;;;5054978;28;20068;-59
2023/07/08 07:58:57;;;;;;;4.18;2.63;;;27.90;99.90;;;;;;5053881;28;20047;-59
2023/07/08 08:01:23;;;;;;;8.00;3.10;;;28.00;99.90;;;;;;5053528;28;20056;-59
2023/07/08 08:03:52;;;;;;;2.78;2.28;;;28.30;99.90;;;;;;5053625;28;20471;-58
2023/07/08 08:06:18;;;;;;;7.10;2.80;;;28.20;99.80;;;;;;5053607;28;20079;-59
2023/07/08 08:08:48;;;;;;;4.57;2.65;;;28.10;99.50;;;;;;5053566;28;20064;-59
2023/07/08 08:11:15;;;;;;;7.22;2.97;;;28.30;98.90;;;;;;5053567;28;20482;-58
2023/07/08 08:13:41;;;;;;;3.63;2.38;;;28.40;99.30;;;;;;5053601;28;20120;-58
2023/07/08 08:16:07;;;;;;;3.83;2.60;;;28.80;99.30;;;;;;5053427;28;20076;-59
2023/07/08 08:18:33;;;;;;;8.20;2.60;;;28.80;98.90;;;;;;5053165;28;20037;-59
2023/07/08 08:20:59;;;;;;;6.55;2.65;;;28.90;99.00;;;;;;5053128;28;20391;-58
2023/07/08 08:23:25;;;;;;;4.78;2.60;;;29.10;98.00;;;;;;5053332;28;20040;-58
2023/07/08 08:25:51;;;;;;;8.43;2.47;;;29.40;98.70;;;;;;5068359;28;20136;-59
2023/07/08 08:28:17;;;;;;;8.38;2.72;;;29.40;98.90;;;;;;5070165;28;20039;-59
2023/07/08 08:30:47;;;;;;;6.03;2.80;;;29.70;98.30;;;;;;5052865;28;20132;-58
2023/07/08 08:33:12;;;;;;;6.75;2.45;;;29.60;98.10;;;;;;5055720;28;20045;-58
2023/07/08 08:35:38;;;;;;;6.28;2.40;;;29.70;98.20;;;;;;5057916;28;20033;-58
2023/07/08 08:38:04;;;;;;;3.53;2.67;;;30.10;98.30;;;;;;5052982;28;20483;-59
2023/07/08 08:40:31;;;;;;;4.03;2.50;;;30.30;97.60;;;;;;5051967;28;20041;-59
2023/07/08 08:43:03;;;;;;;3.90;2.80;;;30.30;97.00;;;;;;5052625;28;20044;-58
2023/07/08 08:45:55;;;;;;;5.95;2.78;;;30.50;96.80;;;;;;5052879;28;20041;-58
2023/07/08 08:48:22;;;;;;;5.63;2.58;;;30.50;97.10;;;;;;5052554;28;20529;-58
2023/07/08 08:50:52;;;;;;;3.60;2.30;;;31.00;96.90;;;;;;5052974;28;20048;-58
2023/07/08 08:53:20;;;;;;;5.25;2.50;;;30.90;95.90;;;;;;5061751;28;20044;-58
2023/07/08 08:55:49;;;;;;;;;;;30.60;96.20;;;;;;5072939;28;20051;-59
2023/07/08 08:58:14;;;;;;;4.43;2.28;;;31.10;96.70;;;;;;5072870;28;19927;-58
2023/07/08 09:00:57;;;;;;;9.13;2.92;;;31.40;96.20;;;;;;5072365;28;20041;-59
2023/07/08 09:03:38;;;;;;;4.07;2.10;;;31.20;95.80;;;;;;5072729;28;20114;-59
2023/07/08 09:06:32;;;;;;;4.05;2.35;;;31.50;96.00;;;;;;5055707;28;20079;-59
2023/07/08 09:09:05;;;;;;;4.35;2.38;;;31.70;96.00;;;;;;5056311;28;20049;-57
2023/07/08 09:11:44;;;;;;;5.32;2.35;;;31.60;95.30;;;;;;5055928;28;20423;-58
2023/07/08 09:14:14;;;;;;;;;;;31.70;95.70;;;;;;5054223;28;20035;-58
2023/07/08 09:16:48;;;;;;;5.57;2.25;;;31.80;94.70;;;;;;5056198;28;19920;-58
2023/07/08 09:19:35;;;;;;;3.65;2.40;;;31.80;95.50;;;;;;5062073;28;20541;-58
2023/07/08 09:22:08;;;;;;;5.60;2.55;;;32.00;95.00;;;;;;5059808;28;20111;-58
2023/07/08 09:24:50;;;;;;;3.15;2.17;;;31.80;94.70;;;;;;5065105;28;20579;-58
2023/07/08 09:27:16;;;;;;;4.47;2.50;;;32.20;95.80;;;;;;5055847;28;20033;-58
2023/07/08 09:29:42;;;;;;;8.25;2.67;;;32.20;95.40;;;;;;5052333;28;20036;-58
2023/07/08 09:32:17;;;;;;;5.75;2.70;;;31.70;94.70;;;;;;5052134;28;20108;-57
2023/07/08 09:35:02;;;;;;;4.25;2.20;;;32.00;95.30;;;;;;5051109;28;20040;-57
2023/07/08 09:37:36;;;;;;;6.15;2.67;;;31.80;94.30;;;;;;5051619;28;20155;-58
2023/07/08 09:40:14;;;;;;;6.95;2.60;;;32.10;94.10;;;;;;5055365;28;20036;-57
2023/07/08 09:42:41;;;;;;;;;;;32.10;94.70;;;;;;5055102;28;20060;-58
2023/07/08 09:45:19;;;;;;;5.22;2.20;;;32.40;94.70;;;;;;5059689;28;19923;-58
2023/07/08 09:47:46;;;;;;;4.47;2.35;;;32.70;94.70;;;;;;5054928;28;20123;-58
2023/07/08 09:50:24;;;;;;;6.93;2.60;;;32.50;94.60;;;;;;5051401;28;20041;-58
2023/07/08 09:52:52;;;;;;;3.65;2.25;;;32.80;94.10;;;;;;5051495;28;20565;-58
2023/07/08 09:55:18;;;;;;;6.47;2.60;;;32.70;94.50;;;;;;5051680;28;20513;-67
2023/07/08 09:57:47;;;;;;;4.93;2.45;;;32.60;93.80;;;;;;5071643;28;20037;-67
2023/07/08 10:00:16;;;;;;;3.78;2.33;;;32.80;94.60;;;;;;5071731;28;20129;-66
2023/07/08 10:02:54;;;;;;;6.40;2.38;;;32.60;94.20;;;;;;5071589;28;20340;-67
2023/07/08 10:05:33;;;;;;;;;;;32.90;93.70;;;;;;5072369;28;20048;-67
2023/07/08 10:08:00;;;;;;;5.82;2.40;;;32.70;94.00;;;;;;5071726;28;19981;-67
2023/07/08 10:10:37;;;;;;;5.33;2.33;;;32.80;93.90;;;;;;5071570;28;20045;-67
2023/07/08 10:13:11;;;;;;;5.68;2.80;;;33.20;94.00;;;;;;5056417;28;20433;-66
2023/07/08 10:15:41;;;;;;;5.25;2.60;;;33.60;94.50;;;;;;5071488;28;20120;-67
2023/07/08 10:18:15;;;;;;;3.45;2.40;;;33.60;93.70;;;;;;5071287;28;20487;-66
2023/07/08 10:21:08;;;;;;;5.97;2.85;;;33.80;93.90;;;;;;5060701;28;20479;-67
2023/07/08 10:23:56;;;;;;;7.00;2.33;;;33.80;93.50;;;;;;5051272;28;20041;-67
2023/07/08 10:26:27;;;;;;;5.55;2.80;;;33.90;93.00;;;;;;5057559;28;20510;-67
2023/07/08 10:29:09;;;;;;;5.28;2.47;;;33.60;93.80;;;;;;5051348;28;20036;-68
2023/07/08 10:32:04;;;;;;;3.92;2.45;;;33.70;93.60;;;;;;5051321;28;20037;-66
2023/07/08 10:34:48;;;;;;;9.48;2.78;;;34.30;93.20;;;;;;5051231;28;20442;-67
2023/07/08 10:37:23;;;;;;;7.50;2.83;;;34.30;93.60;;;;;;5051019;28;20044;-67
2023/07/08 10:40:10;;;;;;;5.70;2.35;;;34.50;93.10;;;;;;5051914;28;20029;-67
2023/07/08 10:43:04;;;;;;;4.13;2.35;;;34.80;92.90;;;;;;5050869;28;20057;-66
2023/07/08 10:45:42;;;;;;;6.90;2.33;;;34.90;92.60;;;;;;5052555;28;20113;-66
2023/07/08 10:48:33;;;;;;;5.13;2.63;;;35.40;93.30;;;;;;5050956;28;20048;-69
2023/07/08 10:51:27;;;;;;;5.10;2.58;;;35.20;92.50;;;;;;5051244;28;20041;-68
2023/07/08 10:53:53;;;;;;;6.15;2.15;;;35.20;92.40;;;;;;5051092;28;20115;-69
2023/07/08 10:57:08;;;;;;;3.03;2.55;;;35.80;91.90;;;;;;5050928;28;20120;-67
2023/07/08 10:59:44;;;;;;;5.40;2.60;;;35.60;92.20;;;;;;5016843;28;20068;-68
2023/07/08 11:02:42;;;;;;;3.55;2.50;;;35.90;91.90;;;;;;5019798;28;20037;-68
2023/07/08 11:05:08;;;;;;;4.30;2.78;;;36.40;91.70;;;;;;4953166;28;20047;-68
2023/07/08 11:07:48;;;;;;;4.57;2.53;;;36.60;91.80;;;;;;4947205;29;20043;-68
2023/07/08 11:10:43;;;;;;;5.95;2.72;;;36.90;91.70;;;;;;4948420;29;20063;-68
2023/07/08 11:13:16;;;;;;;2.67;2.25;;;37.10;91.20;;;;;;4888757;29;20065;-69
2023/07/08 11:16:10;;;;;;;5.15;2.72;;;37.10;90.60;;;;;;4893488;29;20109;-67
2023/07/08 11:18:59;;;;;;;5.88;2.80;;;37.50;90.50;;;;;;4897145;29;20543;-68
2023/07/08 11:21:50;;;;;;;4.90;2.83;;;37.80;91.00;;;;;;4897236;29;20057;-68
2023/07/08 11:24:16;;;;;;;4.13;2.70;;;37.50;89.30;;;;;;4896989;29;20049;-68
2023/07/08 11:26:57;;;;;;;5.47;2.50;;;37.80;90.30;;;;;;4896905;29;20079;-68
2023/07/08 11:29:46;;;;;;;5.15;2.35;;;38.00;88.80;;;;;;4897045;29;20140;-67
2023/07/08 11:32:15;;;;;;;5.15;3.00;;;37.80;89.50;;;;;;4896940;29;20041;-68
2023/07/08 11:34:44;;;;;;;4.85;3.10;;;37.40;89.00;;;;;;4895656;29;20052;-68
2023/07/08 11:37:12;;;;;;;5.82;2.55;;;37.40;89.00;;;;;;4896685;29;20500;-67
2023/07/08 11:39:45;;;;;;;4.75;2.83;;;37.50;89.00;;;;;;4900098;28;20105;-66
2023/07/08 11:42:19;;;;;;;8.10;3.00;;;37.60;89.60;;;;;;4989724;28;20046;-67
2023/07/08 11:44:51;;;;;;;3.22;2.85;;;37.60;87.60;;;;;;4992522;28;20627;-67
2023/07/08 11:47:36;;;;;;;7.55;3.03;;;37.70;87.10;;;;;;4976293;28;20038;-67
2023/07/08 11:50:03;;;;;;;5.10;2.97;;;37.90;88.40;;;;;;5032673;28;20048;-67
2023/07/08 11:52:29;;;;;;;3.28;2.90;;;37.90;88.20;;;;;;5073663;28;20033;-66
2023/07/08 11:55:15;;;;;;;4.78;3.17;;;38.20;88.00;;;;;;5073814;28;20037;-66
2023/07/08 11:57:42;;;;;;;5.15;3.00;;;37.90;86.10;;;;;;5073912;28;20074;-67
2023/07/08 12:00:11;;;;;;;4.10;2.85;;;37.90;87.40;;;;;;5073634;28;20037;-67
2023/07/08 12:02:58;;;;;;;3.05;2.75;;;37.90;87.10;;;;;;5073767;28;20072;-67
2023/07/08 12:05:35;;;;;;;7.60;3.08;;;37.50;87.10;;;;;;5073452;28;20051;-66
2023/07/08 12:08:03;;;;;;;5.65;2.90;;;37.20;85.40;;;;;;5073811;28;20075;-65
2023/07/08 12:10:37;;;;;;;5.82;2.80;;;37.70;86.90;;;;;;5067468;28;20483;-66
2023/07/08 12:13:03;;;;;;;6.35;2.60;;;38.00;86.70;;;;;;5071029;28;20032;-65
2023/07/08 12:15:33;;;;;;;5.15;2.95;;;38.30;87.70;;;;;;5055751;28;20223;-66
2023/07/08 12:18:00;;;;;;;5.50;3.22;;;38.40;86.90;;;;;;5060099;28;20798;-65
2023/07/08 12:20:31;;;;;;;4.85;2.92;;;38.60;87.10;;;;;;5065382;28;20119;-67
2023/07/08 12:22:56;;;;;;;7.20;3.05;;;38.30;84.90;;;;;;5060013;28;20036;-66
2023/07/08 12:25:26;;;;;;;3.55;2.70;;;37.90;85.00;;;;;;5067802;28;20055;-67
2023/07/08 12:27:51;;;;;;;6.85;2.90;;;37.80;84.70;;;;;;5053146;28;20033;-66
2023/07/08 12:30:17;;;;;;;4.50;2.83;;;37.80;86.30;;;;;;5068130;28;20470;-68
2023/07/08 12:32:44;;;;;;;7.03;3.05;;;37.70;84.10;;;;;;5068815;28;20037;-66
2023/07/08 12:35:22;;;;;;;3.88;2.80;;;37.60;85.60;;;;;;5066935;28;20096;-67
2023/07/08 12:37:50;;;;;;;3.35;2.55;;;37.70;85.10;;;;;;5063674;28;20048;-66
2023/07/08 12:40:15;;;;;;;5.38;2.95;;;37.50;84.90;;;;;;5069243;28;20044;-67
2023/07/08 12:42:41;;;;;;;5.90;2.58;;;37.80;85.80;;;;;;5059464;28;20045;-67
2023/07/08 12:45:19;;;;;;;5.18;3.15;;;37.60;85.40;;;;;;5056896;28;20470;-66
2023/07/08 12:47:45;;;;;;;6.25;3.22;;;37.30;84.00;;;;;;5052850;28;20041;-67
2023/07/08 12:50:12;;;;;;;4.90;3.33;;;37.30;84.40;;;;;;5059930;28;20403;-67
2023/07/08 12:52:39;;;;;;;3.70;3.28;;;37.40;85.00;;;;;;5052764;28;20040;-66
2023/07/08 12:55:05;;;;;;;8.95;3.40;;;37.60;85.60;;;;;;5052712;28;20107;-66
2023/07/08 12:57:31;;;;;;;6.78;2.90;;;37.20;85.10;;;;;;5052923;28;20171;-66